Time;durP1;ratioP1;P1;durP2;ratioP2;P2;SDS_P1;SDS_P2;PMS_P1;PMS_P2;Temp;Humidity;BMP_temperature;BMP_pressure;BME280_temperature;BME280_humidity;BME280_pressure;Samples;Min_cycle;Max_cycle;Signal;HPM_P1;HPM_P2
2022/09/04 00:00:55;;;;;;;7.90;6.57;;;;;;;17.68;89.64;94985.50;4972955;28;20198;-79
2022/09/04 00:03:38;;;;;;;8.00;6.93;;;;;;;18.05;89.79;95051.22;4989688;28;20708;-81
2022/09/04 00:06:12;;;;;;;9.20;7.27;;;;;;;18.09;89.76;95062.00;4992415;28;20279;-81
2022/09/04 00:08:55;;;;;;;6.77;6.13;;;;;;;18.09;89.83;95067.19;4992351;28;20194;-81
2022/09/04 00:11:32;;;;;;;6.60;6.00;;;;;;;18.04;89.13;95057.38;4992556;28;20293;-80
2022/09/04 00:14:02;;;;;;;7.27;6.57;;;;;;;17.79;89.15;95017.97;4992666;28;20303;-81
2022/09/04 00:16:41;;;;;;;12.27;6.30;;;;;;;17.91;89.36;95045.00;4992621;28;20235;-81
2022/09/04 00:19:14;;;;;;;9.40;7.60;;;;;;;17.61;89.33;94992.34;4992011;28;20232;-79
2022/09/04 00:21:46;;;;;;;8.40;7.20;;;;;;;17.84;89.23;95027.78;4992395;28;20200;-80
2022/09/04 00:24:16;;;;;;;8.50;7.63;;;;;;;17.22;89.46;94938.97;4992241;28;20201;-80
2022/09/04 00:26:53;;;;;;;10.70;8.20;;;;;;;18.03;89.61;95061.75;4992157;28;20197;-80
2022/09/04 00:29:29;;;;;;;11.20;7.60;;;;;;;17.69;89.54;95007.81;4992328;28;20193;-79
2022/09/04 00:32:07;;;;;;;8.27;5.93;;;;;;;18.12;88.22;95072.03;4984608;28;20204;-81
2022/09/04 00:34:48;;;;;;;6.70;5.47;;;;;;;17.27;87.84;94954.78;4992627;28;20287;-80
2022/09/04 00:37:20;;;;;;;7.83;5.33;;;;;;;18.01;88.12;95079.25;4991977;28;20212;-81
2022/09/04 00:39:54;;;;;;;5.40;4.90;;;;;;;16.78;87.91;94877.59;4991665;28;20527;-81
2022/09/04 00:42:36;;;;;;;6.97;5.27;;;;;;;17.59;88.37;95021.97;4992297;28;20185;-79
2022/09/04 00:45:46;;;;;;;6.13;5.53;;;;;;;17.82;88.92;95074.50;4991650;28;20283;-81
2022/09/04 00:48:27;;;;;;;7.80;5.30;;;;;;;17.20;89.22;94986.66;4991360;28;20251;-80
2022/09/04 00:51:15;;;;;;;6.10;5.50;;;;;;;17.52;89.40;95035.56;4991738;28;20294;-79
2022/09/04 00:54:19;;;;;;;5.73;5.23;;;;;;;17.67;89.69;95060.69;4992096;28;20458;-81
2022/09/04 00:57:47;;;;;;;7.23;5.33;;;;;;;17.39;89.49;95016.41;4991278;28;20311;-80
2022/09/04 01:00:17;;;;;;;6.83;5.33;;;;;;;17.29;89.42;95009.69;4992043;28;20191;-81
2022/09/04 01:03:17;;;;;;;8.30;5.53;;;;;;;17.48;89.29;95043.84;4991281;28;20197;-81
2022/09/04 01:06:08;;;;;;;5.90;5.33;;;;;;;17.53;89.49;95054.50;4985166;28;20209;-79
2022/09/04 01:08:58;;;;;;;5.67;5.17;;;;;;;17.40;89.25;95034.38;4988819;28;20193;-81
2022/09/04 01:11:34;;;;;;;6.50;5.60;;;;;;;17.58;89.35;95053.97;4991767;28;20192;-82
2022/09/04 01:14:12;;;;;;;6.27;5.67;;;;;;;17.60;89.70;95067.53;4991200;28;20731;-78
2022/09/04 01:16:45;;;;;;;6.30;5.40;;;;;;;17.58;89.68;95079.84;4990992;28;20612;-78
2022/09/04 01:19:33;;;;;;;5.87;5.27;;;;;;;17.52;90.05;95079.53;4991370;28;20204;-81
2022/09/04 01:22:21;;;;;;;6.93;6.23;;;;;;;17.20;90.38;95030.59;4990323;28;20193;-79
2022/09/04 01:25:05;;;;;;;10.00;5.90;;;;;;;17.49;90.53;95076.50;4991019;28;20197;-81
2022/09/04 01:27:42;;;;;;;6.23;5.63;;;;;;;17.46;90.49;95075.03;4989633;28;20988;-80
2022/09/04 01:30:13;;;;;;;6.60;6.00;;;;;;;17.48;90.61;95067.09;4991153;28;20653;-81
2022/09/04 01:32:51;;;;;;;6.43;5.80;;;;;;;17.45;90.80;95052.75;4991519;28;20204;-82
2022/09/04 01:35:30;;;;;;;8.77;6.13;;;;;;;17.34;90.55;95045.38;4991420;28;20813;-81
2022/09/04 01:38:07;;;;;;;6.87;6.17;;;;;;;17.47;90.65;95060.34;4990784;28;20700;-80
2022/09/04 01:40:43;;;;;;;8.00;6.00;;;;;;;16.37;90.69;94899.41;4991489;28;20227;-82
2022/09/04 01:43:13;;;;;;;7.47;6.47;;;;;;;17.42;90.79;95052.28;4990725;28;20193;-81
2022/09/04 01:46:06;;;;;;;7.40;5.90;;;;;;;17.04;90.61;94987.56;4991073;28;20673;-79
2022/09/04 01:48:42;;;;;;;6.77;6.13;;;;;;;17.39;90.93;95055.22;4991034;28;20665;-80
2022/09/04 01:51:27;;;;;;;9.57;6.80;;;;;;;17.37;91.03;95054.59;4990752;28;20283;-82
2022/09/04 01:54:08;;;;;;;9.00;6.63;;;;;;;17.02;91.09;95005.81;4991577;28;20584;-81
2022/09/04 01:56:41;;;;;;;7.67;6.63;;;;;;;17.33;91.18;95054.13;4990768;28;20280;-78
2022/09/04 01:59:20;;;;;;;7.93;6.73;;;;;;;17.16;91.46;95030.13;4990753;28;20665;-78
2022/09/04 02:01:53;;;;;;;7.80;6.93;;;;;;;16.39;90.80;94906.00;4991371;28;20181;-79
2022/09/04 02:04:27;;;;;;;7.17;6.47;;;;;;;17.33;90.81;95051.53;4992160;28;20575;-76
2022/09/04 02:07:02;;;;;;;7.33;6.63;;;;;;;17.28;90.98;95048.66;4991056;28;20188;-78
2022/09/04 02:09:37;;;;;;;8.47;6.73;;;;;;;17.13;91.01;95030.47;4991224;28;20208;-80
2022/09/04 02:12:16;;;;;;;10.03;6.03;;;;;;;17.25;90.91;95046.41;4991446;28;20258;-79
2022/09/04 02:14:54;;;;;;;7.10;6.00;;;;;;;16.76;90.96;94972.53;4990890;28;20228;-79
2022/09/04 02:17:35;;;;;;;6.10;5.50;;;;;;;15.46;90.81;94775.09;4991294;28;20315;-79
2022/09/04 02:20:14;;;;;;;7.13;6.43;;;;;;;17.21;90.77;95051.09;4992689;28;20280;-79
2022/09/04 02:22:52;;;;;;;7.57;6.67;;;;;;;17.26;90.26;95053.19;4995848;28;20189;-78
2022/09/04 02:25:29;;;;;;;6.77;6.07;;;;;;;17.01;90.31;95013.72;5012433;28;20569;-81
2022/09/04 02:28:08;;;;;;;7.97;6.60;;;;;;;16.49;90.61;94929.03;5011789;28;20200;-79
2022/09/04 02:30:49;;;;;;;10.07;6.57;;;;;;;17.05;90.57;95008.06;5003343;28;20196;-78
2022/09/04 02:33:24;;;;;;;7.37;6.40;;;;;;;16.59;90.71;94941.75;4993644;28;20239;-80
2022/09/04 02:35:59;;;;;;;8.90;7.73;;;;;;;15.89;90.94;94834.94;4995207;28;20548;-81
2022/09/04 02:38:35;;;;;;;7.27;6.57;;;;;;;17.07;91.04;95028.56;4996469;28;20212;-79
2022/09/04 02:41:11;;;;;;;8.60;7.07;;;;;;;16.33;90.82;94904.09;4994660;28;20251;-79
2022/09/04 02:43:58;;;;;;;7.53;6.83;;;;;;;15.43;90.90;94780.56;4994255;28;20276;-80
2022/09/04 02:46:34;;;;;;;8.73;7.87;;;;;;;15.20;90.72;94749.56;4994798;28;20188;-81
2022/09/04 02:49:12;;;;;;;8.30;6.87;;;;;;;17.06;91.40;95042.47;4994440;28;20267;-81
2022/09/04 02:51:52;;;;;;;10.43;7.63;;;;;;;16.85;91.42;95019.00;4994052;28;20271;-82
2022/09/04 02:54:32;;;;;;;8.67;7.77;;;;;;;17.03;91.32;95050.56;4994121;28;20201;-81
2022/09/04 02:57:08;;;;;;;12.03;8.43;;;;;;;17.01;91.34;95058.47;4993830;28;20676;-78
2022/09/04 02:59:46;;;;;;;8.37;7.57;;;;;;;17.00;91.51;95045.72;4994566;28;20185;-79
2022/09/04 03:02:26;;;;;;;8.53;7.47;;;;;;;16.16;90.99;94918.03;4994519;28;20196;-79
2022/09/04 03:05:01;;;;;;;8.90;8.00;;;;;;;16.77;90.98;95020.63;4993636;28;20200;-80
2022/09/04 03:07:31;;;;;;;10.03;7.47;;;;;;;15.30;91.03;94799.13;4995451;28;20219;-80
2022/09/04 03:10:09;;;;;;;8.73;7.83;;;;;;;16.16;91.45;94933.53;4993569;28;20665;-78
2022/09/04 03:12:43;;;;;;;10.17;7.60;;;;;;;16.57;91.20;94998.69;4996152;28;20279;-77
2022/09/04 03:15:18;;;;;;;8.57;7.77;;;;;;;17.02;90.93;95061.88;4993763;28;20719;-80
2022/09/04 03:17:57;;;;;;;10.40;7.83;;;;;;;16.55;90.82;94974.84;4993710;28;20208;-80
2022/09/04 03:20:26;;;;;;;12.50;10.17;;;;;;;16.34;91.30;94962.50;4993362;28;20193;-81
2022/09/04 03:22:59;;;;;;;11.67;10.17;;;;;;;14.88;92.28;94754.75;4994486;28;20721;-80
2022/09/04 03:25:45;;;;;;;11.60;10.40;;;;;;;16.23;94.79;95035.09;4998249;28;20205;-79
2022/09/04 03:28:19;;;;;;;10.20;9.20;;;;;;;16.48;94.21;95051.34;4998577;28;20294;-78
2022/09/04 03:30:48;;;;;;;10.70;9.60;;;;;;;16.39;94.95;95055.72;4999646;28;20189;-78
2022/09/04 03:33:22;;;;;;;11.37;9.93;;;;;;;16.34;95.81;95062.34;4996025;28;20593;-79
2022/09/04 03:36:00;;;;;;;13.73;9.90;;;;;;;15.90;95.70;94996.44;4993581;28;20280;-79
2022/09/04 03:38:32;;;;;;;12.83;10.60;;;;;;;16.30;96.25;95059.28;4993620;28;20268;-80
2022/09/04 03:41:13;;;;;;;11.63;10.00;;;;;;;15.87;96.67;95007.09;4992874;28;20654;-78
2022/09/04 03:43:56;;;;;;;12.17;9.87;;;;;;;15.30;96.26;94920.22;4992414;28;20279;-80
2022/09/04 03:46:37;;;;;;;10.63;9.53;;;;;;;16.27;96.98;95067.34;4993595;28;20185;-79
2022/09/04 03:49:15;;;;;;;10.27;9.17;;;;;;;16.27;96.95;95082.84;4992974;28;20216;-79
2022/09/04 03:51:58;;;;;;;14.03;10.00;;;;;;;15.99;96.18;95041.09;4993292;28;20196;-79
2022/09/04 03:54:44;;;;;;;10.47;9.10;;;;;;;15.31;96.13;94932.13;4994188;28;20193;-81
2022/09/04 03:57:35;;;;;;;11.87;9.47;;;;;;;16.11;96.22;95049.31;4994229;28;20189;-79
2022/09/04 04:00:07;;;;;;;19.90;9.67;;;;;;;15.94;96.49;95023.53;4992868;28;20277;-80
2022/09/04 04:02:50;;;;;;;13.07;9.80;;;;;;;16.34;96.34;95086.38;4992874;28;20622;-82
2022/09/04 04:05:35;;;;;;;10.70;9.70;;;;;;;16.40;95.99;95100.41;4992161;28;20606;-81
2022/09/04 04:08:18;;;;;;;11.07;9.03;;;;;;;16.41;95.39;95107.19;4992365;28;20197;-79
2022/09/04 04:10:58;;;;;;;9.77;8.80;;;;;;;14.84;94.52;94864.97;4992793;28;20197;-79
2022/09/04 04:13:55;;;;;;;10.50;9.40;;;;;;;15.97;95.13;95071.41;4992596;28;20201;-80
2022/09/04 04:16:39;;;;;;;11.13;8.87;;;;;;;15.79;95.99;95061.25;4992312;28;20200;-82
2022/09/04 04:19:30;;;;;;;11.00;9.77;;;;;;;16.28;96.44;95125.75;4992790;28;20224;-80
2022/09/04 04:22:17;;;;;;;9.90;8.47;;;;;;;16.08;95.73;95096.88;4992118;28;20201;-78
2022/09/04 04:25:09;;;;;;;12.03;8.37;;;;;;;16.02;96.48;95108.66;4993188;28;20197;-78
2022/09/04 04:27:53;;;;;;;9.30;8.40;;;;;;;15.94;96.55;95087.22;4974944;28;20227;-81
2022/09/04 04:30:21;;;;;;;10.70;8.77;;;;;;;16.24;96.85;95138.19;4991616;28;20200;-80
2022/09/04 04:33:04;;;;;;;13.43;9.47;;;;;;;16.29;96.43;95146.25;4992164;28;20273;-81
2022/09/04 04:35:43;;;;;;;10.10;8.80;;;;;;;15.91;96.34;95074.63;4991997;28;20687;-81
2022/09/04 04:38:27;;;;;;;12.30;9.87;;;;;;;16.28;96.41;95131.72;4992047;28;20220;-79
2022/09/04 04:41:11;;;;;;;12.90;10.57;;;;;;;16.02;96.30;95089.81;4991917;28;20185;-82
2022/09/04 04:43:51;;;;;;;11.93;10.47;;;;;;;15.62;95.17;94984.81;4991439;28;20197;-80
2022/09/04 04:46:28;;;;;;;12.23;8.83;;;;;;;16.59;94.93;95131.06;4991572;28;20574;-78
2022/09/04 04:49:27;;;;;;;11.93;10.20;;;;;;;16.31;95.64;95146.06;4991456;28;20200;-79
2022/09/04 04:52:04;;;;;;;11.60;10.17;;;;;;;16.28;96.49;95147.22;4991201;28;20212;-78
2022/09/04 04:54:51;;;;;;;13.40;10.87;;;;;;;16.05;96.47;95130.75;4991685;28;20181;-79
2022/09/04 04:57:30;;;;;;;12.27;10.97;;;;;;;16.04;96.80;95121.38;4991203;28;20672;-81
2022/09/04 05:00:07;;;;;;;13.83;10.50;;;;;;;15.30;97.21;95010.41;4991961;28;20295;-79
2022/09/04 05:02:42;;;;;;;13.30;9.90;;;;;;;15.89;98.21;95100.59;4991409;28;20200;-78
2022/09/04 05:05:16;;;;;;;12.73;10.00;;;;;;;16.24;98.20;95153.66;4991545;28;20197;-79
2022/09/04 05:07:53;;;;;;;12.80;11.40;;;;;;;16.44;97.83;95153.31;4991798;28;20188;-78
2022/09/04 05:10:29;;;;;;;12.43;10.50;;;;;;;15.43;97.38;94978.22;4991381;28;20275;-79
2022/09/04 05:13:07;;;;;;;12.23;11.03;;;;;;;14.67;97.30;94850.47;4983145;28;20231;-81
2022/09/04 05:15:43;;;;;;;12.40;11.03;;;;;;;16.62;97.44;95142.81;4991044;28;20224;-78
2022/09/04 05:18:16;;;;;;;10.93;9.83;;;;;;;16.76;96.63;95135.25;4991415;28;20732;-81
2022/09/04 05:20:53;;;;;;;13.50;11.90;;;;;;;15.84;95.96;94978.22;4991743;28;20212;-80
2022/09/04 05:23:32;;;;;;;12.60;10.03;;;;;;;16.93;96.08;95154.09;4992249;28;20193;-79
2022/09/04 05:26:11;;;;;;;11.70;10.50;;;;;;;17.04;95.49;95158.09;4991396;28;20285;-80
2022/09/04 05:28:51;;;;;;;13.93;10.83;;;;;;;15.78;95.12;94954.69;4991231;28;20196;-78
2022/09/04 05:31:30;;;;;;;11.77;10.13;;;;;;;17.05;95.00;95116.59;4990364;28;20200;-79
2022/09/04 05:34:04;;;;;;;11.27;10.13;;;;;;;16.82;94.28;95047.72;4990468;28;20283;-80
2022/09/04 05:36:44;;;;;;;11.27;10.10;;;;;;;17.63;93.75;95155.94;4991030;28;20197;-79
2022/09/04 05:39:23;;;;;;;11.50;10.20;;;;;;;16.20;92.46;94922.69;4991025;28;20276;-82
2022/09/04 05:42:34;;;;;;;13.40;10.13;;;;;;;16.98;91.81;95030.38;4990976;28;20275;-81
2022/09/04 05:45:12;;;;;;;14.00;10.53;;;;;;;17.85;91.26;95179.47;4929996;29;20258;-79
2022/09/04 05:47:48;;;;;;;13.30;11.33;;;;;;;17.81;90.84;95140.19;4931178;29;20187;-78
2022/09/04 05:50:41;;;;;;;14.00;11.23;;;;;;;18.00;89.45;95144.09;4931328;29;20289;-78
2022/09/04 05:53:22;;;;;;;12.97;10.77;;;;;;;18.11;89.65;95164.41;4931080;29;20202;-77
2022/09/04 05:56:18;;;;;;;14.10;10.80;;;;;;;18.00;89.16;95134.56;4931665;29;20312;-80
2022/09/04 05:59:16;;;;;;;13.07;10.73;;;;;;;18.18;88.80;95160.16;4931369;29;20267;-77
2022/09/04 06:02:08;;;;;;;22.60;11.43;;;;;;;17.84;89.65;95126.13;4874467;29;20197;-79
2022/09/04 06:04:54;;;;;;;12.17;10.87;;;;;;;18.10;89.95;95146.47;4873956;29;20193;-80
2022/09/04 06:07:29;;;;;;;14.03;10.90;;;;;;;18.11;89.60;95128.16;4873291;29;20241;-80
2022/09/04 06:10:07;;;;;;;12.73;11.17;;;;;;;17.44;89.80;95016.72;4874016;29;20279;-80
2022/09/04 06:13:06;;;;;;;12.87;10.53;;;;;;;18.35;89.65;95139.31;4873986;29;20192;-79
2022/09/04 06:15:44;;;;;;;14.23;12.60;;;;;;;16.81;88.71;94891.94;4782770;29;20449;-79
2022/09/04 06:18:38;;;;;;;12.70;11.37;;;;;;;18.31;88.78;95107.81;4782908;30;20204;-79
2022/09/04 06:21:32;;;;;;;17.27;12.50;;;;;;;16.96;88.79;94903.13;4790420;29;20218;-79
2022/09/04 06:24:18;;;;;;;15.40;12.73;;;;;;;18.09;88.53;95062.00;4800872;29;20192;-80
2022/09/04 06:27:23;;;;;;;14.30;12.80;;;;;;;18.73;88.24;95138.34;4801395;29;20195;-80
2022/09/04 06:30:06;;;;;;;15.43;13.23;;;;;;;18.69;88.15;95108.59;4765509;30;20732;-79
2022/09/04 06:32:59;;;;;;;13.63;12.07;;;;;;;18.20;87.85;95008.03;4765177;30;20211;-80
2022/09/04 06:35:52;;;;;;;17.47;12.93;;;;;;;19.35;87.87;95128.63;4765421;30;20205;-80
2022/09/04 06:38:39;;;;;;;15.23;11.17;;;;;;;18.89;86.38;95014.78;4793472;29;20206;-78
2022/09/04 06:41:26;;;;;;;12.77;11.47;;;;;;;18.65;83.43;94925.16;4835139;29;20198;-80
2022/09/04 06:44:21;;;;;;;11.97;10.70;;;;;;;20.39;81.25;95142.91;4842560;29;20198;-78
2022/09/04 06:46:56;;;;;;;12.10;10.50;;;;;;;20.02;80.61;95024.53;4839157;29;20744;-82
2022/09/04 06:49:37;;;;;;;13.47;10.80;;;;;;;19.26;78.34;94859.03;4837016;29;20221;-81
2022/09/04 06:52:18;;;;;;;11.67;10.57;;;;;;;19.40;78.17;94854.75;4880092;29;20206;-79
2022/09/04 06:54:56;;;;;;;16.77;10.43;;;;;;;19.74;77.11;94866.19;4931157;29;20277;-79
2022/09/04 06:58:00;;;;;;;12.32;10.65;;;;;;;21.83;76.07;95143.16;4930198;29;20191;-78
2022/09/04 07:00:33;;;;;;;12.50;9.73;;;;;;;21.26;74.73;95019.44;4873830;29;20228;-79
2022/09/04 07:03:42;;;;;;;;;;;;;;;;;;;;;
2022/09/04 07:06:19;;;;;;;11.23;8.45;;;;;;;20.70;72.55;94825.47;4914466;29;20234;-81
2022/09/04 07:08:59;;;;;;;7.97;7.22;;;;;;;22.98;70.15;95141.28;4930700;29;20676;-82
2022/09/04 07:11:54;;;;;;;7.78;7.03;;;;;;;23.26;68.94;95133.97;4929989;29;20195;-80
2022/09/04 07:14:51;;;;;;;7.97;7.18;;;;;;;23.19;67.90;95078.41;4930484;29;20227;-79
2022/09/04 07:17:28;;;;;;;8.20;7.40;;;;;;;23.74;67.28;95145.88;4930116;29;20206;-77
2022/09/04 07:20:23;;;;;;;8.77;7.88;;;;;;;21.95;66.07;94855.13;4932350;29;20242;-80
2022/09/04 07:23:18;;;;;;;8.40;7.28;;;;;;;23.54;66.72;95091.91;4934147;29;20681;-78
2022/09/04 07:25:56;;;;;;;8.65;7.07;;;;;;;23.54;67.02;95078.88;4934813;29;20207;-77
2022/09/04 07:28:51;;;;;;;10.10;7.97;;;;;;;22.03;65.48;94825.47;4933534;29;20195;-77
2022/09/04 07:31:28;;;;;;;9.23;8.35;;;;;;;22.95;65.31;94966.91;4933413;29;20195;-79
2022/09/04 07:34:04;;;;;;;9.85;7.50;;;;;;;22.98;66.12;94958.69;4933969;29;20285;-80
2022/09/04 07:36:45;;;;;;;9.27;8.30;;;;;;;22.23;65.06;94826.19;4939324;28;20214;-81
2022/09/04 07:39:30;;;;;;;;;;;;;;;;;;;;;
2022/09/04 07:42:10;;;;;;;10.15;9.00;;;;;;;24.18;63.23;95078.88;4985274;28;20196;-80
2022/09/04 07:44:45;;;;;;;14.32;12.63;;;;;;;24.78;62.28;95168.16;4992425;28;20195;-77
2022/09/04 07:47:22;;;;;;;16.90;12.80;;;;;;;23.22;63.35;94934.44;4993293;28;20263;-80
2022/09/04 07:50:15;;;;;;;16.70;14.45;;;;;;;24.43;62.82;95149.53;4992635;28;20211;-79
2022/09/04 07:53:05;;;;;;;13.30;11.90;;;;;;;23.83;63.28;95065.47;4993008;28;20213;-79
2022/09/04 07:55:40;;;;;;;21.20;14.15;;;;;;;22.46;63.48;94864.00;4992774;28;20620;-78
2022/09/04 07:58:38;;;;;;;17.92;13.30;;;;;;;23.99;63.72;95140.72;4992961;28;20203;-79
2022/09/04 08:01:31;;;;;;;15.50;12.60;;;;;;;22.22;63.71;94857.69;4992588;28;20201;-80
2022/09/04 08:04:14;;;;;;;18.35;14.52;;;;;;;24.25;64.35;95168.53;4993362;28;20212;-79
2022/09/04 08:06:48;;;;;;;18.20;13.35;;;;;;;24.33;64.36;95172.69;4993822;28;20237;-80
2022/09/04 08:09:51;;;;;;;16.05;13.55;;;;;;;24.46;63.94;95183.91;4993102;28;20553;-79
2022/09/04 08:12:32;;;;;;;16.05;13.38;;;;;;;24.42;63.13;95179.31;4932954;29;20209;-79
2022/09/04 08:15:14;;;;;;;24.30;13.40;;;;;;;24.32;63.38;95142.34;4932785;29;20233;-78
2022/09/04 08:18:06;;;;;;;18.65;15.23;;;;;;;24.40;63.97;95191.81;4933216;29;20259;-77
2022/09/04 08:20:44;;;;;;;16.67;14.57;;;;;;;24.08;63.48;95133.44;4933206;29;20322;-80
2022/09/04 08:23:42;;;;;;;16.27;13.55;;;;;;;24.33;64.69;95188.38;4933778;29;20283;-81
2022/09/04 08:26:18;;;;;;;19.13;15.15;;;;;;;22.37;64.24;94905.16;4932528;29;20839;-80
2022/09/04 08:29:01;;;;;;;16.13;13.70;;;;;;;23.64;63.24;95082.84;4933225;29;20251;-78
2022/09/04 08:31:45;;;;;;;18.23;13.82;;;;;;;23.48;64.13;95060.59;4933063;29;20594;-78
2022/09/04 08:34:42;;;;;;;16.88;12.48;;;;;;;23.02;63.82;94978.94;4933976;29;20202;-78
2022/09/04 08:37:25;;;;;;;16.05;12.43;;;;;;;23.40;63.53;95003.41;4934846;29;20207;-78
2022/09/04 08:40:12;;;;;;;13.48;10.73;;;;;;;23.50;63.23;95015.03;4943724;29;20226;-79
2022/09/04 08:43:28;;;;;;;16.08;11.13;;;;;;;22.88;62.37;94882.66;4936612;29;20195;-80
2022/09/04 08:46:29;;;;;;;10.70;9.50;;;;;;;24.89;60.33;95166.66;4947286;29;20754;-79
2022/09/04 08:49:38;;;;;;;13.45;8.93;;;;;;;25.07;60.04;95178.97;4973456;28;20194;-80
2022/09/04 08:52:37;;;;;;;8.80;7.90;;;;;;;25.08;57.56;95173.56;4981421;28;20190;-80
2022/09/04 08:55:46;;;;;;;8.60;7.70;;;;;;;25.07;58.29;95161.47;4973681;28;20269;-82
2022/09/04 08:58:46;;;;;;;9.85;8.55;;;;;;;24.45;58.67;95046.34;4913688;29;20315;-81
2022/09/04 09:01:46;;;;;;;8.80;7.90;;;;;;;25.09;57.93;95137.72;4914180;29;20233;-81
2022/09/04 09:04:42;;;;;;;7.25;6.55;;;;;;;24.49;56.34;95028.41;4875730;29;20197;-78
2022/09/04 09:07:43;;;;;;;7.90;5.75;;;;;;;23.63;54.35;94877.56;4864993;29;20201;-82
2022/09/04 09:10:37;;;;;;;8.65;6.70;;;;;;;24.90;55.77;95076.69;4875521;29;20275;-78
2022/09/04 09:13:43;;;;;;;7.97;6.30;;;;;;;25.40;56.27;95171.63;4875596;29;20208;-80
2022/09/04 09:16:31;;;;;;;6.78;5.93;;;;;;;25.49;55.22;95170.31;4802172;29;20219;-81
2022/09/04 09:19:32;;;;;;;8.32;6.32;;;;;;;25.36;55.50;95159.19;4801586;29;20284;-79
2022/09/04 09:22:13;;;;;;;6.30;5.57;;;;;;;25.34;56.61;95154.16;4801476;29;20286;-80
2022/09/04 09:25:19;;;;;;;7.32;6.60;;;;;;;25.42;56.58;95159.09;4802002;29;20796;-80
2022/09/04 09:28:25;;;;;;;13.02;6.15;;;;;;;25.52;57.41;95159.41;4765604;30;20208;-80
2022/09/04 09:31:28;;;;;;;6.18;5.57;;;;;;;25.61;56.79;95146.81;4766009;30;20220;-83
2022/09/04 09:34:33;;;;;;;6.32;5.72;;;;;;;25.67;55.67;95145.13;4819704;29;20195;-79
2022/09/04 09:37:25;;;;;;;7.57;6.28;;;;;;;25.72;56.85;95147.88;4819543;29;20202;-81
2022/09/04 09:40:22;;;;;;;6.70;6.05;;;;;;;25.76;56.21;95143.81;4819531;29;20341;-78
2022/09/04 09:43:25;;;;;;;5.90;5.35;;;;;;;25.80;57.07;95138.94;4855551;29;20198;-80
2022/09/04 09:46:24;;;;;;;6.20;5.68;;;;;;;25.74;56.59;95149.28;4856291;29;20197;-79
2022/09/04 09:49:15;;;;;;;6.68;6.07;;;;;;;25.74;56.25;95130.13;4854666;29;20202;-80
2022/09/04 09:52:27;;;;;;;7.38;5.70;;;;;;;25.29;56.59;95054.53;4856275;29;20205;-80
2022/09/04 09:55:32;;;;;;;6.85;6.15;;;;;;;25.82;56.06;95127.25;4837821;29;20586;-81
2022/09/04 09:58:33;;;;;;;6.28;5.68;;;;;;;25.73;56.17;95121.47;4837434;29;20667;-79
2022/09/04 10:01:14;;;;;;;6.43;5.82;;;;;;;25.71;56.79;95118.25;4837185;29;20233;-78
2022/09/04 10:04:05;;;;;;;6.70;6.05;;;;;;;25.79;55.86;95113.78;4844886;29;20258;-81
2022/09/04 10:07:09;;;;;;;6.30;5.70;;;;;;;25.79;56.21;95127.69;4911521;29;20215;-78
2022/09/04 10:10:02;;;;;;;6.20;5.60;;;;;;;25.69;55.84;95120.31;4911765;29;20187;-80
2022/09/04 10:13:05;;;;;;;6.45;5.75;;;;;;;25.56;56.51;95112.63;4911527;29;20196;-79
2022/09/04 10:16:04;;;;;;;8.35;5.43;;;;;;;25.66;55.79;95115.50;4930169;29;20241;-81
2022/09/04 10:19:07;;;;;;;7.63;5.47;;;;;;;25.64;56.18;95112.31;4930612;29;20199;-81
2022/09/04 10:22:30;;;;;;;6.57;5.93;;;;;;;25.64;56.29;95095.78;4931075;29;20547;-80
2022/09/04 10:25:45;;;;;;;6.63;5.93;;;;;;;25.57;56.25;95090.66;4891253;29;20205;-82
2022/09/04 10:28:42;;;;;;;12.70;5.93;;;;;;;25.43;57.27;95100.50;4930277;29;20722;-78
2022/09/04 10:31:38;;;;;;;7.57;5.60;;;;;;;25.56;57.74;95089.06;4930445;29;20774;-81
2022/09/04 10:34:27;;;;;;;6.30;5.70;;;;;;;25.71;57.19;95099.13;4930414;29;20199;-80
2022/09/04 10:37:06;;;;;;;6.78;5.80;;;;;;;25.39;56.81;95038.28;4930202;29;20566;-79
2022/09/04 10:42:51;;;;;;;9.38;6.32;;;;;;;25.44;54.85;95043.69;4930323;29;20202;-79
2022/09/04 10:45:26;;;;;;;6.57;5.45;;;;;;;25.35;55.58;95029.28;4929910;29;20209;-79
2022/09/04 10:48:18;;;;;;;7.07;5.93;;;;;;;25.57;55.73;95090.66;4930333;29;20273;-81
2022/09/04 10:51:11;;;;;;;6.65;5.97;;;;;;;25.69;55.41;95069.72;4930241;29;20552;-82
2022/09/04 10:54:12;;;;;;;6.82;5.75;;;;;;;25.81;55.68;95083.69;4931801;29;20195;-82
2022/09/04 10:56:52;;;;;;;6.28;5.40;;;;;;;25.77;55.29;95070.22;4984265;28;20231;-79
2022/09/04 10:59:55;;;;;;;5.75;5.20;;;;;;;25.90;55.74;95073.69;4994159;28;20200;-79
2022/09/04 11:03:11;;;;;;;6.03;5.18;;;;;;;25.67;55.09;95025.41;4914859;29;20266;-80
2022/09/04 11:06:22;;;;;;;7.88;4.93;;;;;;;26.03;54.39;95063.81;4914783;29;20646;-77
2022/09/04 11:09:04;;;;;;;6.65;6.03;;;;;;;25.96;54.26;95051.84;4914472;29;20760;-81
2022/09/04 11:11:59;;;;;;;5.88;5.38;;;;;;;25.86;54.90;95018.31;4915319;29;20693;-81
2022/09/04 11:14:49;;;;;;;6.25;5.65;;;;;;;26.16;54.39;95056.78;4905703;29;20329;-80
2022/09/04 11:17:50;;;;;;;6.78;5.18;;;;;;;26.19;54.02;95062.38;4896071;29;20381;-79
2022/09/04 11:20:56;;;;;;;5.60;5.10;;;;;;;26.09;53.59;95050.84;4895730;29;20242;-83
2022/09/04 11:23:57;;;;;;;5.72;4.90;;;;;;;25.90;54.31;95024.69;4896418;29;20821;-79
2022/09/04 11:26:48;;;;;;;5.53;5.00;;;;;;;25.92;53.94;95016.63;4895933;29;20668;-79
2022/09/04 11:29:44;;;;;;;5.03;4.53;;;;;;;26.21;53.53;95054.28;4896472;29;20196;-81
2022/09/04 11:32:30;;;;;;;6.13;5.20;;;;;;;26.23;53.82;95055.66;4896153;29;20207;-79
2022/09/04 11:35:28;;;;;;;7.10;4.95;;;;;;;26.30;52.82;95063.41;4896187;29;20232;-77
2022/09/04 11:38:09;;;;;;;5.28;4.88;;;;;;;26.21;52.94;95047.22;4907727;28;20613;-78
2022/09/04 11:41:15;;;;;;;5.18;4.72;;;;;;;26.29;53.16;95051.31;4974179;28;20614;-77
2022/09/04 11:44:29;;;;;;;5.75;5.22;;;;;;;26.35;53.04;95044.38;4974590;28;20217;-77
2022/09/04 11:47:33;;;;;;;6.03;4.80;;;;;;;26.35;53.22;95049.63;4840168;29;20209;-79
2022/09/04 11:50:29;;;;;;;5.47;4.85;;;;;;;26.35;51.88;95053.03;4803778;29;20216;-79
2022/09/04 11:53:22;;;;;;;5.38;4.45;;;;;;;26.37;52.28;95050.97;4803769;29;20188;-79
2022/09/04 11:56:05;;;;;;;5.15;4.65;;;;;;;26.40;52.22;95031.38;4803351;29;20200;-78
2022/09/04 11:59:15;;;;;;;7.25;4.70;;;;;;;26.25;52.08;95031.81;4804165;29;20207;-77
2022/09/04 12:02:07;;;;;;;7.30;4.65;;;;;;;26.35;52.42;95021.56;4765833;30;20233;-78
2022/09/04 12:04:59;;;;;;;5.18;4.70;;;;;;;26.24;52.44;94983.03;4766374;30;20626;-78
2022/09/04 12:07:41;;;;;;;5.55;4.85;;;;;;;26.50;51.85;95000.94;4766873;30;20227;-77
2022/09/04 12:10:27;;;;;;;5.10;4.63;;;;;;;26.50;51.78;95000.16;4767054;30;20217;-77
2022/09/04 12:13:13;;;;;;;4.30;3.95;;;;;;;26.13;50.66;94957.63;4766947;30;20205;-78
2022/09/04 12:16:10;;;;;;;6.60;4.50;;;;;;;26.46;51.22;95006.88;4766744;30;20294;-77
2022/09/04 12:19:13;;;;;;;7.57;4.30;;;;;;;26.49;51.76;94998.56;4766858;30;20194;-76
2022/09/04 12:22:15;;;;;;;4.63;4.22;;;;;;;26.47;51.75;95005.88;4769188;29;20237;-78
2022/09/04 12:24:58;;;;;;;5.70;3.80;;;;;;;26.11;52.07;94983.25;4874788;29;20610;-76
2022/09/04 12:28:02;;;;;;;5.70;4.50;;;;;;;26.24;52.66;94989.06;4904603;29;20746;-77
2022/09/04 12:30:41;;;;;;;6.32;4.60;;;;;;;26.38;52.44;95015.88;4913119;29;20199;-78
2022/09/04 12:34:00;;;;;;;5.28;4.78;;;;;;;26.44;51.86;95011.56;4959073;28;20193;-78
2022/09/04 12:36:59;;;;;;;5.15;4.70;;;;;;;26.36;52.06;94999.56;4913200;29;20192;-76
2022/09/04 12:40:00;;;;;;;4.30;4.00;;;;;;;26.20;51.45;94992.38;4913259;29;20196;-77
2022/09/04 12:42:33;;;;;;;5.82;4.40;;;;;;;26.08;51.54;94981.06;4913166;29;20198;-78
2022/09/04 12:45:15;;;;;;;4.65;4.05;;;;;;;26.29;52.01;95014.59;4913271;29;20196;-78
2022/09/04 12:47:57;;;;;;;4.10;3.80;;;;;;;26.31;51.98;95009.16;4913027;29;20200;-80
2022/09/04 12:50:34;;;;;;;5.03;3.85;;;;;;;26.31;51.25;95006.53;4913244;29;20235;-76
2022/09/04 12:53:18;;;;;;;4.18;3.78;;;;;;;26.30;51.43;95007.56;4913197;29;20271;-78
2022/09/04 12:55:59;;;;;;;4.88;3.67;;;;;;;26.27;51.79;95004.34;4913037;29;20584;-77
2022/09/04 12:58:41;;;;;;;4.53;4.10;;;;;;;26.13;52.19;94991.69;4913306;29;20238;-78
2022/09/04 13:01:18;;;;;;;6.90;4.28;;;;;;;26.09;50.81;94969.59;4912870;29;20235;-79